sensor_id;sensor_type;location;lat;lon;timestamp;P1;durP1;ratioP1;P2;durP2;ratioP2
53644;SDS011;39547;45.554;12.068;2022-11-13T00:00:04;14.63;;;5.78;;
53644;SDS011;39547;45.554;12.068;2022-11-13T00:06:24;14.90;;;6.22;;
53644;SDS011;39547;45.554;12.068;2022-11-13T00:12:44;14.65;;;5.90;;
53644;SDS011;39547;45.554;12.068;2022-11-13T00:19:04;13.68;;;5.47;;
53644;SDS011;39547;45.554;12.068;2022-11-13T00:25:24;13.77;;;5.22;;
53644;SDS011;39547;45.554;12.068;2022-11-13T00:31:44;14.48;;;5.82;;
53644;SDS011;39547;45.554;12.068;2022-11-13T00:38:04;13.10;;;5.40;;
53644;SDS011;39547;45.554;12.068;2022-11-13T00:44:24;15.45;;;6.03;;
53644;SDS011;39547;45.554;12.068;2022-11-13T00:50:44;14.05;;;5.47;;
53644;SDS011;39547;45.554;12.068;2022-11-13T00:57:04;13.02;;;4.90;;
53644;SDS011;39547;45.554;12.068;2022-11-13T01:03:24;13.43;;;5.20;;
53644;SDS011;39547;45.554;12.068;2022-11-13T01:09:48;13.50;;;4.93;;
53644;SDS011;39547;45.554;12.068;2022-11-13T01:16:09;12.90;;;5.10;;
53644;SDS011;39547;45.554;12.068;2022-11-13T01:22:31;13.65;;;4.97;;
53644;SDS011;39547;45.554;12.068;2022-11-13T01:28:51;15.82;;;5.28;;
53644;SDS011;39547;45.554;12.068;2022-11-13T01:35:12;14.18;;;5.07;;
53644;SDS011;39547;45.554;12.068;2022-11-13T01:41:32;13.48;;;4.90;;
53644;SDS011;39547;45.554;12.068;2022-11-13T01:47:52;13.95;;;5.75;;
53644;SDS011;39547;45.554;12.068;2022-11-13T01:54:14;13.70;;;5.32;;
53644;SDS011;39547;45.554;12.068;2022-11-13T02:00:37;14.30;;;5.38;;
53644;SDS011;39547;45.554;12.068;2022-11-13T02:07:00;14.73;;;5.72;;
53644;SDS011;39547;45.554;12.068;2022-11-13T02:13:26;13.88;;;5.40;;
53644;SDS011;39547;45.554;12.068;2022-11-13T02:19:47;14.32;;;5.75;;
53644;SDS011;39547;45.554;12.068;2022-11-13T02:26:09;14.90;;;5.43;;
53644;SDS011;39547;45.554;12.068;2022-11-13T02:32:30;13.70;;;5.65;;
53644;SDS011;39547;45.554;12.068;2022-11-13T02:38:50;14.10;;;5.50;;
53644;SDS011;39547;45.554;12.068;2022-11-13T02:45:12;13.40;;;4.95;;
53644;SDS011;39547;45.554;12.068;2022-11-13T02:51:32;14.30;;;5.40;;
53644;SDS011;39547;45.554;12.068;2022-11-13T02:57:52;14.20;;;5.30;;
53644;SDS011;39547;45.554;12.068;2022-11-13T03:04:12;13.75;;;5.40;;
53644;SDS011;39547;45.554;12.068;2022-11-13T03:10:31;14.38;;;5.60;;
53644;SDS011;39547;45.554;12.068;2022-11-13T03:16:52;14.75;;;5.28;;
53644;SDS011;39547;45.554;12.068;2022-11-13T03:23:12;14.05;;;5.38;;
53644;SDS011;39547;45.554;12.068;2022-11-13T03:29:32;13.40;;;4.70;;
53644;SDS011;39547;45.554;12.068;2022-11-13T03:35:52;13.73;;;5.05;;
53644;SDS011;39547;45.554;12.068;2022-11-13T03:42:12;14.45;;;5.15;;
53644;SDS011;39547;45.554;12.068;2022-11-13T03:48:32;13.48;;;4.95;;
53644;SDS011;39547;45.554;12.068;2022-11-13T03:54:52;14.30;;;5.20;;
53644;SDS011;39547;45.554;12.068;2022-11-13T04:01:12;15.65;;;5.50;;
53644;SDS011;39547;45.554;12.068;2022-11-13T04:07:32;12.57;;;4.70;;
53644;SDS011;39547;45.554;12.068;2022-11-13T04:13:52;13.55;;;5.30;;
53644;SDS011;39547;45.554;12.068;2022-11-13T04:20:12;13.45;;;4.93;;
53644;SDS011;39547;45.554;12.068;2022-11-13T04:26:32;13.48;;;4.88;;
53644;SDS011;39547;45.554;12.068;2022-11-13T04:32:52;13.65;;;5.20;;
53644;SDS011;39547;45.554;12.068;2022-11-13T04:39:12;13.75;;;5.00;;
53644;SDS011;39547;45.554;12.068;2022-11-13T04:45:32;13.18;;;4.95;;
53644;SDS011;39547;45.554;12.068;2022-11-13T04:51:52;13.82;;;5.10;;
53644;SDS011;39547;45.554;12.068;2022-11-13T04:58:13;14.13;;;5.30;;
53644;SDS011;39547;45.554;12.068;2022-11-13T05:04:33;15.65;;;5.50;;
53644;SDS011;39547;45.554;12.068;2022-11-13T05:10:53;15.20;;;6.00;;
53644;SDS011;39547;45.554;12.068;2022-11-13T05:17:13;13.85;;;5.03;;
53644;SDS011;39547;45.554;12.068;2022-11-13T05:23:33;14.40;;;5.43;;
53644;SDS011;39547;45.554;12.068;2022-11-13T05:29:54;14.77;;;5.28;;
53644;SDS011;39547;45.554;12.068;2022-11-13T05:36:15;14.15;;;5.75;;
53644;SDS011;39547;45.554;12.068;2022-11-13T05:42:36;12.85;;;4.78;;
53644;SDS011;39547;45.554;12.068;2022-11-13T05:48:59;14.38;;;5.57;;
53644;SDS011;39547;45.554;12.068;2022-11-13T05:55:19;13.65;;;5.05;;
53644;SDS011;39547;45.554;12.068;2022-11-13T06:01:39;14.10;;;5.47;;
53644;SDS011;39547;45.554;12.068;2022-11-13T06:07:59;13.77;;;5.13;;
53644;SDS011;39547;45.554;12.068;2022-11-13T06:14:19;13.65;;;5.43;;
53644;SDS011;39547;45.554;12.068;2022-11-13T06:20:39;13.52;;;5.18;;
53644;SDS011;39547;45.554;12.068;2022-11-13T06:26:59;13.32;;;4.93;;
53644;SDS011;39547;45.554;12.068;2022-11-13T06:33:19;14.20;;;5.30;;
53644;SDS011;39547;45.554;12.068;2022-11-13T06:39:39;14.80;;;6.13;;
53644;SDS011;39547;45.554;12.068;2022-11-13T06:46:02;14.45;;;5.95;;
53644;SDS011;39547;45.554;12.068;2022-11-13T06:52:26;14.98;;;6.13;;
53644;SDS011;39547;45.554;12.068;2022-11-13T06:58:46;14.45;;;5.95;;
53644;SDS011;39547;45.554;12.068;2022-11-13T07:05:07;15.65;;;6.45;;
53644;SDS011;39547;45.554;12.068;2022-11-13T07:11:27;14.55;;;5.88;;
53644;SDS011;39547;45.554;12.068;2022-11-13T07:17:47;15.35;;;6.20;;
53644;SDS011;39547;45.554;12.068;2022-11-13T07:24:07;14.25;;;5.93;;
53644;SDS011;39547;45.554;12.068;2022-11-13T07:30:27;16.67;;;7.05;;
53644;SDS011;39547;45.554;12.068;2022-11-13T07:36:47;15.30;;;6.30;;
53644;SDS011;39547;45.554;12.068;2022-11-13T07:43:07;16.40;;;6.55;;
53644;SDS011;39547;45.554;12.068;2022-11-13T07:49:27;15.55;;;6.18;;
53644;SDS011;39547;45.554;12.068;2022-11-13T07:55:47;13.85;;;5.80;;
53644;SDS011;39547;45.554;12.068;2022-11-13T08:02:09;13.77;;;5.88;;
53644;SDS011;39547;45.554;12.068;2022-11-13T08:08:34;14.77;;;5.75;;
53644;SDS011;39547;45.554;12.068;2022-11-13T08:14:54;14.23;;;5.78;;
53644;SDS011;39547;45.554;12.068;2022-11-13T08:21:14;14.10;;;5.47;;
53644;SDS011;39547;45.554;12.068;2022-11-13T08:27:34;13.63;;;5.32;;
53644;SDS011;39547;45.554;12.068;2022-11-13T08:33:54;13.43;;;5.00;;
53644;SDS011;39547;45.554;12.068;2022-11-13T08:40:14;13.57;;;5.47;;
53644;SDS011;39547;45.554;12.068;2022-11-13T08:46:34;14.02;;;5.20;;
53644;SDS011;39547;45.554;12.068;2022-11-13T08:52:55;14.35;;;5.45;;
53644;SDS011;39547;45.554;12.068;2022-11-13T08:59:16;14.20;;;4.90;;
53644;SDS011;39547;45.554;12.068;2022-11-13T09:05:36;14.63;;;5.38;;
53644;SDS011;39547;45.554;12.068;2022-11-13T09:11:56;16.42;;;6.63;;
53644;SDS011;39547;45.554;12.068;2022-11-13T09:18:15;14.07;;;6.15;;
53644;SDS011;39547;45.554;12.068;2022-11-13T09:24:35;16.33;;;7.40;;
53644;SDS011;39547;45.554;12.068;2022-11-13T09:30:55;15.68;;;7.15;;
53644;SDS011;39547;45.554;12.068;2022-11-13T09:37:16;16.35;;;7.70;;
53644;SDS011;39547;45.554;12.068;2022-11-13T09:50:16;15.63;;;7.15;;
53644;SDS011;39547;45.554;12.068;2022-11-13T09:56:39;16.77;;;8.32;;
53644;SDS011;39547;45.554;12.068;2022-11-13T10:10:20;16.55;;;8.02;;
53644;SDS011;39547;45.554;12.068;2022-11-13T10:23:33;17.80;;;7.90;;
53644;SDS011;39547;45.554;12.068;2022-11-13T10:29:56;16.23;;;7.53;;
53644;SDS011;39547;45.554;12.068;2022-11-13T10:36:20;17.25;;;8.20;;
53644;SDS011;39547;45.554;12.068;2022-11-13T10:43:04;17.50;;;8.38;;
53644;SDS011;39547;45.554;12.068;2022-11-13T10:49:31;17.20;;;8.63;;
53644;SDS011;39547;45.554;12.068;2022-11-13T10:55:53;16.85;;;8.18;;
53644;SDS011;39547;45.554;12.068;2022-11-13T11:08:37;17.65;;;8.35;;
53644;SDS011;39547;45.554;12.068;2022-11-13T11:21:19;17.50;;;8.75;;
53644;SDS011;39547;45.554;12.068;2022-11-13T11:34:21;15.23;;;7.00;;
53644;SDS011;39547;45.554;12.068;2022-11-13T11:41:04;15.85;;;7.70;;
53644;SDS011;39547;45.554;12.068;2022-11-13T11:47:31;17.25;;;8.32;;
53644;SDS011;39547;45.554;12.068;2022-11-13T11:54:05;16.88;;;8.80;;
53644;SDS011;39547;45.554;12.068;2022-11-13T12:00:47;16.27;;;8.43;;
53644;SDS011;39547;45.554;12.068;2022-11-13T12:14:09;15.40;;;7.50;;
53644;SDS011;39547;45.554;12.068;2022-11-13T12:34:03;15.90;;;7.80;;
53644;SDS011;39547;45.554;12.068;2022-11-13T12:40:44;15.77;;;7.40;;
53644;SDS011;39547;45.554;12.068;2022-11-13T12:47:13;15.48;;;7.32;;
53644;SDS011;39547;45.554;12.068;2022-11-13T12:53:50;17.27;;;8.57;;
53644;SDS011;39547;45.554;12.068;2022-11-13T13:00:20;16.50;;;8.15;;
53644;SDS011;39547;45.554;12.068;2022-11-13T13:07:05;17.58;;;8.82;;
53644;SDS011;39547;45.554;12.068;2022-11-13T13:20:44;16.10;;;7.88;;
53644;SDS011;39547;45.554;12.068;2022-11-13T13:27:28;17.42;;;8.52;;
53644;SDS011;39547;45.554;12.068;2022-11-13T13:54:23;16.63;;;8.48;;
53644;SDS011;39547;45.554;12.068;2022-11-13T14:00:57;16.38;;;7.70;;
53644;SDS011;39547;45.554;12.068;2022-11-13T14:13:41;16.02;;;7.63;;
53644;SDS011;39547;45.554;12.068;2022-11-13T14:20:01;15.52;;;7.22;;
53644;SDS011;39547;45.554;12.068;2022-11-13T14:26:21;15.25;;;7.13;;
53644;SDS011;39547;45.554;12.068;2022-11-13T14:32:41;15.45;;;6.95;;
53644;SDS011;39547;45.554;12.068;2022-11-13T14:39:02;17.23;;;7.72;;
53644;SDS011;39547;45.554;12.068;2022-11-13T14:45:23;15.63;;;7.15;;
53644;SDS011;39547;45.554;12.068;2022-11-13T14:51:52;14.82;;;6.70;;
53644;SDS011;39547;45.554;12.068;2022-11-13T14:58:14;17.00;;;7.85;;
53644;SDS011;39547;45.554;12.068;2022-11-13T15:04:51;15.93;;;7.22;;
53644;SDS011;39547;45.554;12.068;2022-11-13T15:11:14;16.52;;;6.97;;
53644;SDS011;39547;45.554;12.068;2022-11-13T15:17:36;15.90;;;7.15;;
53644;SDS011;39547;45.554;12.068;2022-11-13T15:23:56;15.38;;;7.10;;
53644;SDS011;39547;45.554;12.068;2022-11-13T15:30:16;15.82;;;7.10;;
53644;SDS011;39547;45.554;12.068;2022-11-13T15:36:38;15.07;;;7.10;;
53644;SDS011;39547;45.554;12.068;2022-11-13T15:42:58;15.77;;;7.18;;
53644;SDS011;39547;45.554;12.068;2022-11-13T15:49:19;15.75;;;7.10;;
53644;SDS011;39547;45.554;12.068;2022-11-13T15:55:39;16.30;;;7.72;;
53644;SDS011;39547;45.554;12.068;2022-11-13T16:01:59;16.65;;;7.70;;
53644;SDS011;39547;45.554;12.068;2022-11-13T16:08:20;15.52;;;7.10;;
53644;SDS011;39547;45.554;12.068;2022-11-13T16:14:40;16.83;;;7.90;;
53644;SDS011;39547;45.554;12.068;2022-11-13T16:21:00;16.25;;;7.75;;
53644;SDS011;39547;45.554;12.068;2022-11-13T16:33:46;21.23;;;10.85;;
53644;SDS011;39547;45.554;12.068;2022-11-13T16:40:13;24.35;;;12.05;;
53644;SDS011;39547;45.554;12.068;2022-11-13T16:46:43;20.70;;;10.52;;
53644;SDS011;39547;45.554;12.068;2022-11-13T16:53:04;19.23;;;9.55;;
53644;SDS011;39547;45.554;12.068;2022-11-13T16:59:25;20.65;;;10.43;;
53644;SDS011;39547;45.554;12.068;2022-11-13T17:05:49;20.55;;;10.60;;
53644;SDS011;39547;45.554;12.068;2022-11-13T17:12:10;21.93;;;11.10;;
53644;SDS011;39547;45.554;12.068;2022-11-13T17:18:31;21.23;;;11.10;;
53644;SDS011;39547;45.554;12.068;2022-11-13T17:24:50;20.42;;;11.38;;
53644;SDS011;39547;45.554;12.068;2022-11-13T17:31:11;22.55;;;11.88;;
53644;SDS011;39547;45.554;12.068;2022-11-13T17:37:31;22.65;;;11.05;;
53644;SDS011;39547;45.554;12.068;2022-11-13T17:43:50;20.77;;;10.82;;
53644;SDS011;39547;45.554;12.068;2022-11-13T17:50:10;21.10;;;10.75;;
53644;SDS011;39547;45.554;12.068;2022-11-13T17:56:30;20.92;;;10.82;;
53644;SDS011;39547;45.554;12.068;2022-11-13T18:02:50;24.13;;;13.15;;
53644;SDS011;39547;45.554;12.068;2022-11-13T18:09:10;23.00;;;12.75;;
53644;SDS011;39547;45.554;12.068;2022-11-13T18:15:32;22.42;;;11.70;;
53644;SDS011;39547;45.554;12.068;2022-11-13T18:21:56;24.77;;;12.85;;
53644;SDS011;39547;45.554;12.068;2022-11-13T18:28:16;23.25;;;12.10;;
53644;SDS011;39547;45.554;12.068;2022-11-13T18:34:36;27.15;;;13.73;;
53644;SDS011;39547;45.554;12.068;2022-11-13T18:40:59;25.45;;;14.02;;
53644;SDS011;39547;45.554;12.068;2022-11-13T18:47:22;25.98;;;13.63;;
53644;SDS011;39547;45.554;12.068;2022-11-13T18:53:43;23.63;;;12.05;;
53644;SDS011;39547;45.554;12.068;2022-11-13T19:00:04;24.63;;;12.70;;
53644;SDS011;39547;45.554;12.068;2022-11-13T19:06:24;23.23;;;12.65;;
53644;SDS011;39547;45.554;12.068;2022-11-13T19:12:44;23.45;;;12.70;;
53644;SDS011;39547;45.554;12.068;2022-11-13T19:19:06;25.42;;;13.75;;
53644;SDS011;39547;45.554;12.068;2022-11-13T19:25:32;28.40;;;15.50;;
53644;SDS011;39547;45.554;12.068;2022-11-13T19:31:52;27.15;;;14.30;;
53644;SDS011;39547;45.554;12.068;2022-11-13T19:38:12;32.47;;;17.95;;
53644;SDS011;39547;45.554;12.068;2022-11-13T19:44:33;25.95;;;13.95;;
53644;SDS011;39547;45.554;12.068;2022-11-13T19:50:53;31.35;;;17.05;;
53644;SDS011;39547;45.554;12.068;2022-11-13T19:57:13;26.88;;;14.13;;
53644;SDS011;39547;45.554;12.068;2022-11-13T20:03:33;29.83;;;16.88;;
53644;SDS011;39547;45.554;12.068;2022-11-13T20:09:53;29.02;;;15.82;;
53644;SDS011;39547;45.554;12.068;2022-11-13T20:16:14;30.20;;;15.75;;
53644;SDS011;39547;45.554;12.068;2022-11-13T20:22:35;30.58;;;16.30;;
53644;SDS011;39547;45.554;12.068;2022-11-13T20:28:55;26.95;;;15.07;;
53644;SDS011;39547;45.554;12.068;2022-11-13T20:35:15;29.25;;;15.80;;
53644;SDS011;39547;45.554;12.068;2022-11-13T20:41:35;33.53;;;17.95;;
53644;SDS011;39547;45.554;12.068;2022-11-13T20:47:56;31.80;;;16.95;;
53644;SDS011;39547;45.554;12.068;2022-11-13T20:54:16;28.40;;;14.90;;
53644;SDS011;39547;45.554;12.068;2022-11-13T21:00:36;30.05;;;15.57;;
53644;SDS011;39547;45.554;12.068;2022-11-13T21:06:56;26.80;;;14.40;;
53644;SDS011;39547;45.554;12.068;2022-11-13T21:13:17;29.42;;;15.60;;
53644;SDS011;39547;45.554;12.068;2022-11-13T21:19:37;36.00;;;18.95;;
53644;SDS011;39547;45.554;12.068;2022-11-13T21:25:58;35.03;;;17.98;;
53644;SDS011;39547;45.554;12.068;2022-11-13T21:32:18;35.70;;;19.30;;
53644;SDS011;39547;45.554;12.068;2022-11-13T21:38:38;31.23;;;16.10;;
53644;SDS011;39547;45.554;12.068;2022-11-13T21:45:00;28.92;;;14.57;;
53644;SDS011;39547;45.554;12.068;2022-11-13T21:51:20;30.17;;;14.98;;
53644;SDS011;39547;45.554;12.068;2022-11-13T21:57:39;33.75;;;16.58;;
53644;SDS011;39547;45.554;12.068;2022-11-13T22:03:59;34.78;;;18.20;;
53644;SDS011;39547;45.554;12.068;2022-11-13T22:10:20;38.10;;;18.77;;
53644;SDS011;39547;45.554;12.068;2022-11-13T22:16:40;34.22;;;16.65;;
53644;SDS011;39547;45.554;12.068;2022-11-13T22:23:03;35.65;;;17.90;;
53644;SDS011;39547;45.554;12.068;2022-11-13T22:29:24;36.72;;;19.27;;
53644;SDS011;39547;45.554;12.068;2022-11-13T22:35:44;32.45;;;16.85;;
53644;SDS011;39547;45.554;12.068;2022-11-13T22:42:04;35.65;;;17.48;;
53644;SDS011;39547;45.554;12.068;2022-11-13T22:48:24;34.38;;;17.60;;
53644;SDS011;39547;45.554;12.068;2022-11-13T22:54:44;31.30;;;15.38;;
53644;SDS011;39547;45.554;12.068;2022-11-13T23:01:17;33.85;;;17.30;;
53644;SDS011;39547;45.554;12.068;2022-11-13T23:07:40;37.10;;;18.60;;
53644;SDS011;39547;45.554;12.068;2022-11-13T23:14:01;28.35;;;14.57;;
53644;SDS011;39547;45.554;12.068;2022-11-13T23:20:22;35.42;;;16.80;;
53644;SDS011;39547;45.554;12.068;2022-11-13T23:26:42;31.00;;;15.35;;
53644;SDS011;39547;45.554;12.068;2022-11-13T23:33:02;30.38;;;14.88;;
53644;SDS011;39547;45.554;12.068;2022-11-13T23:39:22;34.30;;;17.20;;
53644;SDS011;39547;45.554;12.068;2022-11-13T23:45:42;29.25;;;15.45;;
53644;SDS011;39547;45.554;12.068;2022-11-13T23:52:02;36.17;;;18.23;;
53644;SDS011;39547;45.554;12.068;2022-11-13T23:58:22;30.05;;;15.40;;
